Time;durP1;ratioP1;P1;durP2;ratioP2;P2;SDS_P1;SDS_P2;PMS_P1;PMS_P2;Temp;Humidity;BMP_temperature;BMP_pressure;BME280_temperature;BME280_humidity;BME280_pressure;Samples;Min_cycle;Max_cycle;Signal;HPM_P1;HPM_P2
2021/11/08 00:01:07;;;;;;;12.95;5.40;;;8.00;99.90;;;;;;5002238;28;20105;-84
2021/11/08 00:03:35;;;;;;;12.02;4.47;;;8.00;99.90;;;;;;5005046;28;20093;-82
2021/11/08 00:06:04;;;;;;;6.90;4.57;;;8.00;99.90;;;;;;5016002;28;20018;-83
2021/11/08 00:08:31;;;;;;;6.55;4.53;;;8.00;99.90;;;;;;5013750;28;20046;-84
2021/11/08 00:10:57;;;;;;;14.73;4.80;;;8.00;99.90;;;;;;5015721;28;20121;-83
2021/11/08 00:13:24;;;;;;;10.55;4.93;;;8.00;99.90;;;;;;4994446;28;20041;-83
2021/11/08 00:20:57;;;;;;;9.90;5.40;;;7.90;99.90;;;;;;4989666;28;20069;-83
2021/11/08 00:23:23;;;;;;;10.27;4.70;;;7.90;99.90;;;;;;4991988;28;20491;-82
2021/11/08 00:25:49;;;;;;;11.55;5.00;;;7.80;99.90;;;;;;4996760;28;20030;-82
2021/11/08 00:28:17;;;;;;;12.02;5.40;;;7.80;99.90;;;;;;4994596;28;20042;-82
2021/11/08 00:30:43;;;;;;;11.98;4.70;;;7.80;99.90;;;;;;5006267;28;20053;-83
2021/11/08 00:33:15;;;;;;;8.63;5.78;;;7.80;99.90;;;;;;5047142;28;20082;-87
2021/11/08 00:35:42;;;;;;;9.73;5.30;;;7.70;99.90;;;;;;5024259;28;20018;-81
2021/11/08 00:40:44;;;;;;;12.98;5.55;;;7.50;99.90;;;;;;5020911;26;20447;-81
2021/11/08 00:43:11;;;;;;;9.15;5.22;;;7.50;99.90;;;;;;5023535;28;20473;-82
2021/11/08 00:45:38;;;;;;;13.60;5.22;;;7.40;99.90;;;;;;5024736;28;20026;-81
2021/11/08 00:48:04;;;;;;;12.07;5.30;;;7.40;99.90;;;;;;5034991;28;20018;-82
2021/11/08 00:50:31;;;;;;;7.78;5.70;;;7.30;99.90;;;;;;5017492;28;20030;-83
2021/11/08 00:52:56;;;;;;;8.65;5.95;;;7.20;99.90;;;;;;5036861;23;21639;-79
2021/11/08 00:55:24;;;;;;;11.20;6.10;;;7.10;99.90;;;;;;5006833;28;20068;-79
2021/11/08 00:57:51;;;;;;;10.15;6.97;;;7.00;99.90;;;;;;5002052;28;20043;-80
2021/11/08 01:00:19;;;;;;;11.60;5.55;;;7.00;99.90;;;;;;5005958;28;20033;-80
2021/11/08 01:02:45;;;;;;;11.68;7.47;;;6.90;99.90;;;;;;5008194;28;20014;-80
2021/11/08 01:05:14;;;;;;;16.25;7.07;;;6.90;99.90;;;;;;5007862;28;20026;-80
2021/11/08 01:07:39;;;;;;;13.70;6.32;;;6.90;99.90;;;;;;5006689;28;20412;-79
2021/11/08 01:10:07;;;;;;;9.27;6.70;;;7.00;99.90;;;;;;5000900;28;20030;-77
2021/11/08 01:12:34;;;;;;;11.95;7.75;;;7.00;99.90;;;;;;4992692;28;20035;-77
2021/11/08 01:15:00;;;;;;;12.50;6.80;;;6.90;99.90;;;;;;4988914;28;20055;-76
2021/11/08 01:17:25;;;;;;;9.70;6.82;;;6.90;99.90;;;;;;4990092;28;20527;-75
2021/11/08 01:19:52;;;;;;;12.38;6.55;;;6.80;99.90;;;;;;4991252;28;20093;-72
2021/11/08 01:22:21;;;;;;;14.95;7.88;;;6.70;99.90;;;;;;4988086;28;20030;-73
2021/11/08 01:24:54;;;;;;;11.23;7.13;;;6.70;99.90;;;;;;4991925;28;20157;-73
2021/11/08 01:27:42;;;;;;;11.88;6.68;;;6.70;99.90;;;;;;4996795;28;20029;-74
2021/11/08 01:30:20;;;;;;;10.30;6.15;;;6.70;99.90;;;;;;4983347;28;20185;-73
2021/11/08 01:33:10;;;;;;;16.05;6.93;;;6.70;99.90;;;;;;4989178;28;20524;-73
2021/11/08 01:35:44;;;;;;;15.67;5.77;;;6.70;99.90;;;;;;4990543;28;20065;-73
2021/11/08 01:38:22;;;;;;;15.15;6.88;;;6.60;99.90;;;;;;4991125;28;20073;-73
2021/11/08 01:40:48;;;;;;;10.10;5.72;;;6.60;99.90;;;;;;4992443;28;20403;-74
2021/11/08 01:43:15;;;;;;;13.93;6.28;;;6.50;99.90;;;;;;4997620;28;20106;-73
2021/11/08 01:45:42;;;;;;;11.98;6.28;;;6.50;99.90;;;;;;5004941;28;20031;-74
2021/11/08 01:48:11;;;;;;;15.15;7.18;;;6.50;99.90;;;;;;4989716;28;20030;-74
2021/11/08 01:50:37;;;;;;;8.68;5.68;;;6.40;99.90;;;;;;4993458;28;20045;-73
2021/11/08 01:53:04;;;;;;;14.35;7.32;;;6.20;99.90;;;;;;4999629;28;20045;-72
2021/11/08 01:55:31;;;;;;;21.13;8.68;;;6.10;99.90;;;;;;5009207;28;20033;-73
2021/11/08 01:57:58;;;;;;;10.30;6.93;;;6.00;99.90;;;;;;5000423;28;20093;-73
2021/11/08 02:00:25;;;;;;;11.10;6.68;;;5.90;99.90;;;;;;5009244;28;20026;-74
2021/11/08 02:02:51;;;;;;;16.50;7.22;;;5.90;99.90;;;;;;5008722;28;20194;-73
2021/11/08 02:05:16;;;;;;;15.48;10.02;;;5.80;99.90;;;;;;4978123;28;20042;-74
2021/11/08 02:07:42;;;;;;;14.20;7.03;;;5.70;99.90;;;;;;4987914;28;20130;-73
2021/11/08 02:10:11;;;;;;;15.82;7.45;;;5.70;99.90;;;;;;4995644;28;20038;-73
2021/11/08 02:12:37;;;;;;;14.52;7.20;;;5.60;99.90;;;;;;4992786;28;20031;-73
2021/11/08 02:15:06;;;;;;;10.63;6.28;;;5.60;99.90;;;;;;4995901;28;20034;-73
2021/11/08 02:17:33;;;;;;;12.10;6.82;;;5.60;99.90;;;;;;4990643;28;20101;-73
2021/11/08 02:20:13;;;;;;;13.88;6.38;;;5.60;99.90;;;;;;4991755;28;20049;-75
2021/11/08 02:22:39;;;;;;;11.90;6.05;;;5.60;99.90;;;;;;5004564;28;20062;-73
2021/11/08 02:25:05;;;;;;;16.38;6.50;;;5.50;99.90;;;;;;5011035;28;20482;-73
2021/11/08 02:27:30;;;;;;;10.45;5.30;;;5.50;99.90;;;;;;4984047;28;20473;-73
2021/11/08 02:29:56;;;;;;;12.90;6.72;;;5.50;99.90;;;;;;4995221;28;20058;-73
2021/11/08 02:32:22;;;;;;;10.85;6.53;;;5.40;99.90;;;;;;4995037;28;20034;-74
2021/11/08 02:34:47;;;;;;;10.25;6.57;;;5.30;99.90;;;;;;4982098;28;20033;-73
2021/11/08 02:37:14;;;;;;;18.60;7.07;;;5.30;99.90;;;;;;4995150;28;20393;-73
2021/11/08 02:39:42;;;;;;;13.68;5.95;;;5.30;99.90;;;;;;4988048;28;20032;-73
2021/11/08 02:42:07;;;;;;;10.60;6.18;;;5.20;99.90;;;;;;4984711;28;20097;-73
2021/11/08 02:44:33;;;;;;;8.02;5.95;;;5.20;99.90;;;;;;4981366;28;20019;-73
2021/11/08 02:46:59;;;;;;;15.18;6.65;;;5.20;99.90;;;;;;4983062;28;20049;-72
2021/11/08 02:49:28;;;;;;;16.13;7.57;;;5.10;99.90;;;;;;4994726;28;20153;-73
2021/11/08 02:52:04;;;;;;;6.22;5.63;;;5.10;99.90;;;;;;4994640;28;20018;-73
2021/11/08 02:54:34;;;;;;;11.23;6.20;;;5.00;99.90;;;;;;4993755;28;20026;-74
2021/11/08 02:57:01;;;;;;;12.77;7.40;;;5.00;99.90;;;;;;4989012;28;20031;-73
2021/11/08 02:59:29;;;;;;;7.53;5.80;;;5.00;99.90;;;;;;4988215;28;20026;-74
2021/11/08 03:01:55;;;;;;;9.77;5.07;;;5.10;99.90;;;;;;4995177;28;20022;-74
2021/11/08 03:04:28;;;;;;;12.30;6.03;;;5.00;99.90;;;;;;4992444;28;20027;-75
2021/11/08 03:06:54;;;;;;;10.30;5.13;;;5.00;99.90;;;;;;4983357;28;20102;-74
2021/11/08 03:09:33;;;;;;;7.72;5.35;;;5.00;99.90;;;;;;4985791;28;20110;-76
2021/11/08 03:12:08;;;;;;;13.02;5.70;;;4.90;99.90;;;;;;4984849;28;20023;-73
2021/11/08 03:14:37;;;;;;;12.00;5.55;;;4.90;99.90;;;;;;4989717;28;20433;-73
2021/11/08 03:17:04;;;;;;;12.00;7.05;;;4.90;99.90;;;;;;4992272;28;20026;-73
2021/11/08 03:19:35;;;;;;;12.18;6.05;;;4.90;99.90;;;;;;4994372;28;20038;-74
2021/11/08 03:22:12;;;;;;;12.60;6.32;;;4.90;99.90;;;;;;4994075;28;20025;-72
2021/11/08 03:24:59;;;;;;;12.05;5.65;;;4.90;99.90;;;;;;4993404;28;20113;-73
2021/11/08 03:30:15;;;;;;;12.15;6.63;;;4.80;99.90;;;;;;4993987;28;20109;-74
2021/11/08 03:32:43;;;;;;;13.77;6.22;;;4.70;99.90;;;;;;4993763;28;20163;-73
2021/11/08 03:35:11;;;;;;;12.90;6.22;;;4.70;99.90;;;;;;4993789;28;20060;-74
2021/11/08 03:37:39;;;;;;;12.45;6.13;;;4.70;99.90;;;;;;4994990;28;20022;-72
2021/11/08 03:40:17;;;;;;;10.50;5.95;;;4.70;99.90;;;;;;5012381;28;20033;-73
2021/11/08 03:42:42;;;;;;;10.82;6.70;;;4.70;99.90;;;;;;5006957;28;20022;-74
2021/11/08 03:45:09;;;;;;;11.85;7.07;;;4.70;99.90;;;;;;4993913;28;20567;-73
2021/11/08 03:47:36;;;;;;;15.85;6.80;;;4.70;99.90;;;;;;4993935;28;20030;-73
2021/11/08 03:50:04;;;;;;;12.60;6.25;;;4.70;99.90;;;;;;5005518;28;20033;-74
2021/11/08 03:52:30;;;;;;;18.55;8.15;;;4.60;99.90;;;;;;4977547;28;20406;-73
2021/11/08 03:54:55;;;;;;;14.52;6.88;;;4.60;99.90;;;;;;4984639;28;20038;-73
2021/11/08 03:57:21;;;;;;;12.27;6.43;;;4.50;99.90;;;;;;4993796;28;20027;-73
2021/11/08 03:59:47;;;;;;;8.82;5.95;;;4.50;99.90;;;;;;4993824;28;20422;-74
2021/11/08 04:02:12;;;;;;;12.77;6.05;;;4.40;99.90;;;;;;4992137;28;20030;-73
2021/11/08 04:04:38;;;;;;;12.55;6.47;;;4.30;99.90;;;;;;4993460;28;20066;-74
2021/11/08 04:07:04;;;;;;;19.15;8.52;;;4.40;99.90;;;;;;4990649;28;20105;-74
2021/11/08 04:09:30;;;;;;;13.23;7.72;;;4.40;99.90;;;;;;4980692;28;20445;-74
2021/11/08 04:11:55;;;;;;;11.50;7.57;;;4.40;99.90;;;;;;5000223;28;20494;-73
2021/11/08 04:14:23;;;;;;;16.20;6.90;;;4.30;99.90;;;;;;5002889;28;20026;-73
2021/11/08 04:16:49;;;;;;;12.18;7.50;;;4.40;99.90;;;;;;4996118;28;20026;-73
2021/11/08 04:19:15;;;;;;;11.27;7.03;;;4.40;99.90;;;;;;5003211;28;20029;-74
2021/11/08 04:21:41;;;;;;;10.85;6.63;;;4.40;99.90;;;;;;4992827;28;20045;-74
2021/11/08 04:24:08;;;;;;;12.00;6.80;;;4.30;99.90;;;;;;4992977;28;20043;-73
2021/11/08 04:26:35;;;;;;;11.57;7.32;;;4.30;99.90;;;;;;4993155;28;20024;-73
2021/11/08 04:29:03;;;;;;;15.60;7.00;;;4.20;99.90;;;;;;4987181;28;20027;-73
2021/11/08 04:31:33;;;;;;;11.80;6.38;;;4.20;99.90;;;;;;4981080;28;20110;-74
2021/11/08 04:37:08;;;;;;;12.05;6.72;;;4.10;99.90;;;;;;4992927;28;20026;-74
2021/11/08 04:42:08;;;;;;;13.48;7.32;;;4.10;99.90;;;;;;4981849;28;20031;-73
2021/11/08 05:24:25;;;;;;;14.18;7.15;;;3.80;99.90;;;;;;4995439;28;20050;-74
2021/11/08 05:29:57;;;;;;;10.85;7.20;;;3.70;99.90;;;;;;4992806;28;20045;-74
2021/11/08 05:32:25;;;;;;;11.35;6.60;;;3.80;99.90;;;;;;4977940;28;20494;-74
2021/11/08 05:34:51;;;;;;;15.95;7.55;;;3.70;99.90;;;;;;4985923;28;20031;-73
2021/11/08 05:37:17;;;;;;;14.10;7.22;;;3.60;99.90;;;;;;4989827;28;20113;-72
2021/11/08 05:39:50;;;;;;;11.95;7.90;;;3.60;99.90;;;;;;4981163;28;20018;-72
2021/11/08 05:42:16;;;;;;;11.70;7.10;;;3.60;99.90;;;;;;4985614;28;20027;-71
2021/11/08 05:44:43;;;;;;;11.52;7.68;;;3.60;99.90;;;;;;4980877;28;20027;-72
2021/11/08 05:47:08;;;;;;;16.50;8.18;;;3.60;99.90;;;;;;4984833;28;20161;-72
2021/11/08 05:49:35;;;;;;;10.25;6.50;;;3.60;99.90;;;;;;4995494;28;20039;-73
2021/11/08 05:52:02;;;;;;;12.65;6.65;;;3.60;99.90;;;;;;4987028;28;20042;-72
2021/11/08 05:54:28;;;;;;;10.98;8.15;;;3.60;99.90;;;;;;4981521;28;20378;-72
2021/11/08 06:49:07;;;;;;;17.65;8.23;;;3.60;99.90;;;;;;4989790;28;20401;-73
2021/11/08 06:51:26;;;;;;;12.68;9.38;;;3.70;99.90;;;;;;4986584;28;20033;-71
2021/11/08 06:53:59;;;;;;;19.35;7.80;;;3.80;99.90;;;;;;5030980;23;20038;-74
2021/11/08 06:56:27;;;;;;;17.60;9.02;;;3.80;99.90;;;;;;5012636;28;20037;-75
2021/11/08 06:58:53;;;;;;;18.17;8.40;;;3.90;99.90;;;;;;5015539;28;20385;-74
2021/11/08 07:01:18;;;;;;;14.70;8.63;;;3.90;99.90;;;;;;5018767;28;20018;-74
2021/11/08 07:03:44;;;;;;;15.43;8.32;;;4.00;99.90;;;;;;5008292;28;20023;-73
2021/11/08 07:06:10;;;;;;;18.50;9.32;;;4.00;99.90;;;;;;5013816;28;20105;-74
2021/11/08 07:08:35;;;;;;;15.02;7.70;;;4.10;99.90;;;;;;5010566;28;20026;-74
2021/11/08 07:11:01;;;;;;;18.60;9.82;;;4.10;99.90;;;;;;5008246;28;20057;-74
2021/11/08 07:13:26;;;;;;;20.63;11.27;;;4.10;99.90;;;;;;5010548;28;20076;-74
2021/11/08 07:15:52;;;;;;;17.55;9.95;;;4.20;99.90;;;;;;5007178;28;20022;-74
2021/11/08 07:18:17;;;;;;;16.75;10.32;;;4.20;99.90;;;;;;4996060;28;20034;-74
2021/11/08 07:20:44;;;;;;;20.15;8.88;;;4.30;99.90;;;;;;5014561;28;20440;-75
2021/11/08 07:23:09;;;;;;;13.50;8.68;;;4.30;99.90;;;;;;5007550;28;20113;-76
2021/11/08 07:25:35;;;;;;;15.82;8.15;;;4.40;99.90;;;;;;5011441;28;20474;-74
2021/11/08 07:28:04;;;;;;;16.38;10.23;;;4.40;99.90;;;;;;5014620;28;20038;-76
2021/11/08 07:30:31;;;;;;;18.48;10.00;;;4.50;99.90;;;;;;5017263;28;20109;-75
2021/11/08 07:32:56;;;;;;;22.00;8.52;;;4.60;99.90;;;;;;5015260;28;20115;-75
2021/11/08 07:35:22;;;;;;;17.35;7.45;;;4.60;99.90;;;;;;5002638;28;20486;-74
2021/11/08 07:37:47;;;;;;;16.35;8.15;;;4.70;99.90;;;;;;5028471;28;20496;-74
2021/11/08 07:40:13;;;;;;;13.27;6.93;;;4.80;99.90;;;;;;5013626;28;20026;-75
2021/11/08 07:42:39;;;;;;;17.83;6.43;;;4.80;99.90;;;;;;5014103;28;20045;-74
2021/11/08 07:45:05;;;;;;;15.98;7.28;;;5.00;99.90;;;;;;5012913;28;20449;-74
2021/11/08 07:47:31;;;;;;;11.93;7.07;;;5.00;99.90;;;;;;5018339;28;20040;-78
2021/11/08 07:49:56;;;;;;;16.20;7.88;;;5.10;99.90;;;;;;5034931;28;20041;-75
2021/11/08 07:52:22;;;;;;;20.98;8.48;;;5.20;99.90;;;;;;5011339;28;20053;-75
2021/11/08 07:54:48;;;;;;;14.65;7.25;;;5.40;99.90;;;;;;5023538;28;20038;-75
2021/11/08 07:57:13;;;;;;;25.63;9.75;;;5.60;99.90;;;;;;5006946;28;20466;-75
2021/11/08 07:59:39;;;;;;;15.68;7.18;;;5.70;99.90;;;;;;5006142;28;20026;-76
2021/11/08 08:02:05;;;;;;;11.18;6.38;;;5.80;99.90;;;;;;5012529;28;20025;-76
2021/11/08 08:04:31;;;;;;;12.48;6.88;;;5.80;99.90;;;;;;5007288;28;20053;-75
2021/11/08 08:06:56;;;;;;;13.25;6.30;;;5.80;99.90;;;;;;4998711;28;20467;-74
2021/11/08 08:09:22;;;;;;;18.30;7.97;;;5.80;99.90;;;;;;4994088;28;20030;-75
2021/11/08 08:11:49;;;;;;;14.52;7.95;;;5.80;99.90;;;;;;5007404;28;20053;-75
2021/11/08 08:14:16;;;;;;;15.15;7.93;;;5.90;99.90;;;;;;5013558;28;20026;-76
2021/11/08 08:16:42;;;;;;;18.40;9.68;;;6.00;99.90;;;;;;5013225;28;20030;-74
2021/11/08 08:19:07;;;;;;;21.20;8.73;;;6.10;99.90;;;;;;5011570;28;20172;-75
2021/11/08 08:21:33;;;;;;;21.60;9.35;;;6.10;99.90;;;;;;5013097;28;20026;-75
2021/11/08 08:24:01;;;;;;;18.35;9.27;;;6.10;99.90;;;;;;5013284;28;20022;-75
2021/11/08 08:26:36;;;;;;;21.35;9.00;;;6.30;99.90;;;;;;5013266;28;20100;-75
2021/11/08 08:29:05;;;;;;;21.85;8.98;;;6.30;99.90;;;;;;5014452;28;20583;-75
2021/11/08 08:31:32;;;;;;;18.13;9.13;;;6.30;99.90;;;;;;5027704;28;20034;-74
2021/11/08 08:33:58;;;;;;;14.15;9.48;;;6.30;99.90;;;;;;5029247;28;20033;-75
2021/11/08 08:36:24;;;;;;;20.05;10.50;;;6.30;99.90;;;;;;5030155;28;20404;-74
2021/11/08 08:38:50;;;;;;;20.35;9.77;;;6.40;99.90;;;;;;5023187;28;20017;-76
2021/11/08 08:41:16;;;;;;;15.35;8.27;;;6.50;99.90;;;;;;5014671;28;20022;-75
2021/11/08 08:43:42;;;;;;;21.10;10.60;;;6.50;99.90;;;;;;5013593;28;20384;-75
2021/11/08 08:46:07;;;;;;;17.75;8.70;;;6.50;99.90;;;;;;5013552;28;20026;-75
2021/11/08 08:48:34;;;;;;;20.85;9.38;;;6.60;99.90;;;;;;5009164;28;20058;-75
2021/11/08 08:51:01;;;;;;;16.70;10.07;;;6.70;99.90;;;;;;5012885;28;20034;-75
2021/11/08 08:53:27;;;;;;;17.95;8.75;;;6.90;99.90;;;;;;4995411;28;20034;-75
2021/11/08 08:55:54;;;;;;;13.18;8.77;;;7.00;99.90;;;;;;5009957;28;20128;-75
2021/11/08 08:58:20;;;;;;;16.42;8.30;;;7.20;99.90;;;;;;5012872;28;20030;-75
2021/11/08 09:00:48;;;;;;;19.73;9.25;;;7.40;99.90;;;;;;5012989;28;20029;-76
2021/11/08 09:03:15;;;;;;;13.23;7.82;;;7.40;99.90;;;;;;5012702;28;20033;-74
2021/11/08 09:05:41;;;;;;;16.67;7.65;;;7.60;99.90;;;;;;5011104;28;20025;-74
2021/11/08 09:08:06;;;;;;;13.30;7.57;;;7.60;99.90;;;;;;5012585;28;20026;-75
2021/11/08 09:10:34;;;;;;;16.13;9.18;;;7.70;99.90;;;;;;5012447;28;20537;-75
2021/11/08 09:13:00;;;;;;;21.63;9.82;;;7.70;99.90;;;;;;5012494;28;20029;-75
2021/11/08 09:15:27;;;;;;;14.82;9.23;;;7.80;99.90;;;;;;5012548;28;20541;-75
2021/11/08 09:17:53;;;;;;;22.70;10.40;;;8.00;99.90;;;;;;4996242;28;20035;-75
2021/11/08 09:20:20;;;;;;;16.23;9.00;;;8.20;99.90;;;;;;4995864;28;20041;-75
2021/11/08 09:22:48;;;;;;;17.52;8.27;;;8.30;99.90;;;;;;5014257;28;20026;-74
2021/11/08 09:25:14;;;;;;;19.75;9.00;;;8.40;99.90;;;;;;5031211;28;20018;-75
2021/11/08 09:27:42;;;;;;;22.60;11.65;;;8.50;99.90;;;;;;5016223;28;20029;-76
2021/11/08 09:30:11;;;;;;;22.00;12.25;;;8.70;99.90;;;;;;5016117;28;20026;-76
2021/11/08 09:32:37;;;;;;;24.15;11.90;;;8.70;99.90;;;;;;5013343;28;20031;-75
2021/11/08 09:35:06;;;;;;;20.13;10.05;;;8.90;99.90;;;;;;5015668;28;20075;-76
2021/11/08 09:37:34;;;;;;;13.77;8.15;;;9.20;99.90;;;;;;5015808;28;20038;-75
2021/11/08 09:40:00;;;;;;;11.95;6.95;;;9.40;99.90;;;;;;5019809;28;20026;-75
2021/11/08 09:42:27;;;;;;;14.10;6.03;;;9.50;99.90;;;;;;5021161;28;20033;-75
2021/11/08 09:44:54;;;;;;;12.57;6.55;;;9.70;99.90;;;;;;5020133;28;20092;-76
2021/11/08 09:47:20;;;;;;;10.98;5.88;;;9.80;99.90;;;;;;5020289;28;20084;-76
2021/11/08 09:49:52;;;;;;;9.63;5.20;;;9.80;99.90;;;;;;5009806;28;20029;-74
2021/11/08 09:52:20;;;;;;;12.98;5.88;;;9.90;99.90;;;;;;5001318;28;20018;-74
2021/11/08 09:54:46;;;;;;;13.60;6.70;;;10.10;99.90;;;;;;5003796;28;20076;-74
2021/11/08 09:57:13;;;;;;;17.13;6.95;;;10.30;99.90;;;;;;5015766;28;20029;-74
2021/11/08 09:59:39;;;;;;;16.23;7.55;;;10.40;99.90;;;;;;5032196;28;20173;-75
2021/11/08 10:02:15;;;;;;;14.52;8.38;;;10.50;99.90;;;;;;5018253;28;20542;-75
2021/11/08 10:04:42;;;;;;;14.15;6.65;;;10.50;99.90;;;;;;5019673;28;20024;-75
2021/11/08 10:07:08;;;;;;;11.65;7.55;;;10.50;99.90;;;;;;5022158;28;20022;-76
2021/11/08 10:09:35;;;;;;;13.73;7.30;;;10.30;99.90;;;;;;5016650;28;20026;-75
2021/11/08 10:12:07;;;;;;;10.00;6.45;;;10.30;99.90;;;;;;5025955;28;20022;-75
2021/11/08 10:14:33;;;;;;;18.95;8.02;;;10.40;99.90;;;;;;5019031;28;20119;-75
2021/11/08 10:17:01;;;;;;;14.57;6.78;;;10.40;99.90;;;;;;5016841;28;20389;-76
2021/11/08 10:19:27;;;;;;;15.80;6.45;;;10.10;99.90;;;;;;5017981;28;20174;-75
2021/11/08 10:21:55;;;;;;;14.68;6.38;;;9.90;99.90;;;;;;5016054;28;20029;-75
2021/11/08 10:24:28;;;;;;;10.32;5.57;;;9.90;99.90;;;;;;5015633;28;20113;-76
2021/11/08 10:26:56;;;;;;;15.32;7.15;;;9.60;99.90;;;;;;5015550;28;20470;-75
2021/11/08 10:29:24;;;;;;;17.92;7.20;;;9.50;99.90;;;;;;5014934;28;20556;-75
2021/11/08 10:31:54;;;;;;;13.90;7.38;;;9.30;99.90;;;;;;5013463;28;20023;-75
2021/11/08 10:34:21;;;;;;;19.52;7.70;;;9.00;99.90;;;;;;5014782;28;20014;-75
2021/11/08 10:37:05;;;;;;;19.38;6.40;;;9.00;99.90;;;;;;5015475;28;20029;-75
2021/11/08 10:39:37;;;;;;;17.70;5.97;;;9.50;99.90;;;;;;5015061;28;20059;-75
2021/11/08 10:42:43;;;;;;;17.23;7.60;;;9.40;99.90;;;;;;5014922;28;20036;-74
2021/11/08 10:45:20;;;;;;;18.10;7.30;;;9.70;99.90;;;;;;5014032;28;20022;-75
2021/11/08 10:47:59;;;;;;;14.32;7.63;;;9.90;99.90;;;;;;5014707;28;20030;-75
2021/11/08 10:50:27;;;;;;;12.93;5.00;;;10.00;99.90;;;;;;5007779;28;20022;-75
2021/11/08 10:53:02;;;;;;;15.40;4.82;;;10.20;99.90;;;;;;5000545;28;20022;-75
2021/11/08 10:55:31;;;;;;;18.10;6.60;;;10.10;99.90;;;;;;5013953;28;20041;-76
2021/11/08 10:58:19;;;;;;;14.35;6.68;;;10.10;99.90;;;;;;5014509;28;20030;-76
2021/11/08 11:00:56;;;;;;;16.08;5.53;;;10.40;99.90;;;;;;5014170;28;20022;-75
2021/11/08 11:03:23;;;;;;;13.95;7.13;;;10.70;99.90;;;;;;5014981;28;20052;-75
2021/11/08 11:05:57;;;;;;;13.73;7.38;;;10.60;99.90;;;;;;4997238;28;20057;-76
2021/11/08 11:08:23;;;;;;;17.38;6.03;;;10.50;99.90;;;;;;4994593;28;20335;-75
2021/11/08 11:10:55;;;;;;;20.80;7.40;;;10.40;99.90;;;;;;4994417;28;20054;-75
2021/11/08 11:13:22;;;;;;;13.38;5.47;;;10.40;99.90;;;;;;4998957;28;20058;-75
2021/11/08 11:15:49;;;;;;;17.48;5.82;;;10.40;99.90;;;;;;4999630;28;20037;-75
2021/11/08 11:18:17;;;;;;;13.65;6.25;;;10.30;99.90;;;;;;5001079;28;20029;-76
2021/11/08 11:20:45;;;;;;;15.55;6.07;;;10.40;99.90;;;;;;5019022;28;20161;-74
2021/11/08 11:23:24;;;;;;;12.73;5.22;;;10.30;99.90;;;;;;5024064;28;20026;-75
2021/11/08 11:25:53;;;;;;;15.68;5.13;;;10.20;99.90;;;;;;5026972;28;20046;-75
2021/11/08 11:28:34;;;;;;;14.60;4.97;;;10.20;99.90;;;;;;5015734;28;20053;-75
2021/11/08 11:31:09;;;;;;;13.80;5.15;;;10.00;99.90;;;;;;5013523;28;20057;-75
2021/11/08 11:33:34;;;;;;;11.35;4.97;;;10.10;99.90;;;;;;5013473;28;20040;-75
2021/11/08 11:36:17;;;;;;;12.45;4.38;;;9.70;99.90;;;;;;5014006;28;20404;-75
2021/11/08 11:38:48;;;;;;;17.42;5.90;;;9.70;99.90;;;;;;5012755;28;20099;-75
2021/11/08 11:41:21;;;;;;;14.75;4.70;;;9.40;99.90;;;;;;5028827;28;20497;-75
2021/11/08 11:44:00;;;;;;;10.38;4.85;;;9.50;99.90;;;;;;5013482;28;20018;-75
2021/11/08 11:46:29;;;;;;;16.40;5.53;;;9.70;99.90;;;;;;5012558;28;20018;-75
2021/11/08 11:48:56;;;;;;;12.63;5.07;;;9.80;99.90;;;;;;5006930;28;20026;-77
2021/11/08 11:51:27;;;;;;;11.60;5.75;;;10.00;99.90;;;;;;4994193;28;20037;-75
2021/11/08 11:53:55;;;;;;;13.73;4.75;;;9.90;99.90;;;;;;5003953;28;20404;-75
2021/11/08 11:56:22;;;;;;;17.15;5.30;;;9.70;99.90;;;;;;5031346;28;20025;-74
2021/11/08 11:58:48;;;;;;;10.48;4.97;;;9.70;99.90;;;;;;5050169;28;20018;-75
2021/11/08 12:01:19;;;;;;;16.33;5.32;;;10.00;99.90;;;;;;5033395;28;20070;-74
2021/11/08 12:03:45;;;;;;;12.65;5.00;;;10.50;99.90;;;;;;5018905;28;20017;-75
2021/11/08 12:06:16;;;;;;;15.23;6.65;;;10.60;99.90;;;;;;5018827;28;20029;-76
2021/11/08 12:08:42;;;;;;;;;;;10.40;99.90;;;;;;5022797;28;20037;-76
2021/11/08 12:11:09;;;;;;;16.85;5.93;;;10.30;99.90;;;;;;5015305;28;19905;-75
2021/11/08 12:13:41;;;;;;;16.30;5.32;;;10.40;99.90;;;;;;5015553;28;20030;-75
2021/11/08 12:16:19;;;;;;;16.10;4.45;;;10.20;99.90;;;;;;5015474;28;20022;-75
2021/11/08 12:18:46;;;;;;;11.48;4.03;;;10.00;99.90;;;;;;5014214;28;20026;-75
2021/11/08 12:21:24;;;;;;;16.25;4.50;;;10.30;99.90;;;;;;5014847;28;20022;-76
2021/11/08 12:23:52;;;;;;;12.82;4.68;;;10.80;99.90;;;;;;5013533;28;20022;-77
2021/11/08 12:26:21;;;;;;;18.17;3.97;;;10.80;99.90;;;;;;5014407;28;20101;-77
2021/11/08 12:28:47;;;;;;;15.13;4.90;;;10.60;99.90;;;;;;5014208;28;20054;-76
2021/11/08 12:31:20;;;;;;;11.07;3.95;;;10.40;99.90;;;;;;5014128;28;20026;-77
2021/11/08 12:34:07;;;;;;;17.48;4.25;;;10.40;99.90;;;;;;5013456;28;20485;-75
2021/11/08 12:36:34;;;;;;;11.68;4.18;;;10.40;99.90;;;;;;5014023;28;20080;-77
2021/11/08 12:39:10;;;;;;;10.25;3.45;;;10.20;99.90;;;;;;5014283;28;20057;-76
2021/11/08 12:41:44;;;;;;;9.63;3.33;;;10.20;99.90;;;;;;5014724;28;20018;-75
2021/11/08 12:44:11;;;;;;;8.88;3.60;;;10.20;99.90;;;;;;5012833;28;20110;-76
2021/11/08 12:46:44;;;;;;;13.40;5.65;;;10.30;99.90;;;;;;5029633;28;20018;-75
2021/11/08 12:49:23;;;;;;;12.45;4.25;;;10.50;99.90;;;;;;5005503;28;20026;-76
2021/11/08 12:51:55;;;;;;;15.05;5.10;;;10.80;99.90;;;;;;4994937;28;20029;-77
2021/11/08 12:54:21;;;;;;;9.13;3.80;;;10.80;99.90;;;;;;5024368;23;20091;-76
2021/11/08 12:56:47;;;;;;;10.50;3.33;;;10.70;99.90;;;;;;5020981;28;20485;-77
2021/11/08 12:59:18;;;;;;;12.18;3.47;;;10.80;99.90;;;;;;5023312;28;20050;-77
2021/11/08 13:01:52;;;;;;;14.55;3.58;;;11.10;99.90;;;;;;5023807;28;20029;-77
2021/11/08 13:04:19;;;;;;;15.65;4.07;;;11.40;99.90;;;;;;5019079;28;20026;-77
2021/11/08 13:06:47;;;;;;;10.55;3.05;;;11.20;99.90;;;;;;5020386;28;20026;-77
2021/11/08 13:09:22;;;;;;;9.93;3.90;;;11.30;99.90;;;;;;5010841;28;20018;-76
2021/11/08 13:11:56;;;;;;;11.60;4.05;;;12.00;99.90;;;;;;5021260;28;20442;-78
2021/11/08 13:14:27;;;;;;;15.25;3.90;;;12.10;99.90;;;;;;5020684;28;20026;-77
2021/11/08 13:17:12;;;;;;;10.18;3.40;;;12.20;99.90;;;;;;5016674;28;20022;-77
2021/11/08 13:19:51;;;;;;;11.00;3.40;;;11.70;99.90;;;;;;5017285;28;20022;-77
2021/11/08 13:22:27;;;;;;;8.15;3.63;;;11.40;99.90;;;;;;5018632;28;20061;-77
2021/11/08 13:25:05;;;;;;;8.40;3.05;;;11.30;99.90;;;;;;5023257;28;20025;-77
2021/11/08 13:27:30;;;;;;;12.45;3.05;;;11.40;99.90;;;;;;5023008;28;20076;-77
2021/11/08 13:29:58;;;;;;;9.20;3.22;;;11.60;99.90;;;;;;5021619;28;20042;-76
2021/11/08 13:32:28;;;;;;;12.77;3.90;;;11.70;99.90;;;;;;5019952;28;20087;-78
2021/11/08 13:34:55;;;;;;;13.60;5.32;;;11.50;99.90;;;;;;5018601;28;20018;-76
2021/11/08 13:37:21;;;;;;;12.82;5.35;;;11.30;99.90;;;;;;5018214;28;20555;-76
2021/11/08 13:39:50;;;;;;;14.35;5.97;;;11.20;99.90;;;;;;5018837;28;20034;-77
2021/11/08 13:42:19;;;;;;;10.40;4.97;;;11.10;99.90;;;;;;5023658;28;20105;-76
2021/11/08 13:44:47;;;;;;;11.93;4.95;;;10.90;99.90;;;;;;5034330;28;20018;-77
2021/11/08 13:47:12;;;;;;;15.45;6.60;;;10.80;99.90;;;;;;5029262;28;20392;-77
2021/11/08 13:49:38;;;;;;;13.07;5.72;;;10.80;99.90;;;;;;5019413;28;20030;-76
2021/11/08 13:52:04;;;;;;;14.00;5.93;;;10.70;99.90;;;;;;5019191;28;20439;-77
2021/11/08 13:54:32;;;;;;;8.98;5.25;;;10.80;99.90;;;;;;5016394;28;20037;-77
2021/11/08 13:57:05;;;;;;;12.32;4.57;;;10.80;99.90;;;;;;5018043;28;20026;-77
2021/11/08 13:59:33;;;;;;;11.02;4.53;;;10.70;99.90;;;;;;5018910;28;20022;-77
2021/11/08 14:02:08;;;;;;;11.98;3.90;;;10.60;99.90;;;;;;5021571;28;20022;-78
2021/11/08 14:04:38;;;;;;;8.02;3.97;;;10.60;99.90;;;;;;5021066;28;20113;-77
2021/11/08 14:07:06;;;;;;;10.18;3.50;;;10.60;99.90;;;;;;5019620;28;20026;-76
2021/11/08 14:09:32;;;;;;;11.23;3.85;;;10.70;99.90;;;;;;5018479;28;20033;-77
2021/11/08 14:12:01;;;;;;;9.77;4.50;;;10.60;99.90;;;;;;5019192;28;20416;-77
2021/11/08 14:14:29;;;;;;;17.00;4.72;;;10.60;99.90;;;;;;5015960;28;20025;-77
2021/11/08 14:17:06;;;;;;;12.05;4.80;;;10.30;99.90;;;;;;5011446;28;20033;-75
2021/11/08 14:19:32;;;;;;;7.38;4.28;;;10.20;99.90;;;;;;5009814;28;20026;-76
2021/11/08 14:21:57;;;;;;;13.27;3.78;;;10.30;99.90;;;;;;5019432;28;20037;-76
2021/11/08 14:24:24;;;;;;;11.85;4.25;;;10.30;99.90;;;;;;5021556;28;20026;-77
2021/11/08 14:26:55;;;;;;;9.02;3.83;;;10.20;99.90;;;;;;5025010;28;20014;-76
2021/11/08 14:29:24;;;;;;;12.90;3.78;;;10.00;99.90;;;;;;5020786;28;20022;-77
2021/11/08 14:31:55;;;;;;;12.98;5.55;;;10.00;99.90;;;;;;5022293;28;20033;-76
2021/11/08 14:34:24;;;;;;;12.20;4.75;;;9.90;99.90;;;;;;5025795;28;20006;-76
2021/11/08 14:36:51;;;;;;;12.38;6.15;;;9.80;99.90;;;;;;5035450;28;20042;-75
2021/11/08 14:39:21;;;;;;;11.65;4.75;;;9.70;99.90;;;;;;5036511;28;20069;-75
2021/11/08 14:41:56;;;;;;;11.82;5.03;;;9.70;99.90;;;;;;5036674;28;20022;-76
2021/11/08 14:44:23;;;;;;;8.65;4.65;;;9.60;99.90;;;;;;5031943;28;20030;-76